sensor_id;sensor_type;location;lat;lon;timestamp;temperature;humidity
3994;DHT22;2011;48.238;13.948;2023-05-19T00:02:16;10.90;99.90
3994;DHT22;2011;48.238;13.948;2023-05-19T00:04:47;10.90;99.90
3994;DHT22;2011;48.238;13.948;2023-05-19T00:07:17;10.90;99.90
3994;DHT22;2011;48.238;13.948;2023-05-19T00:09:45;10.90;99.90
3994;DHT22;2011;48.238;13.948;2023-05-19T00:12:13;10.90;99.90
3994;DHT22;2011;48.238;13.948;2023-05-19T00:14:41;10.90;99.90
3994;DHT22;2011;48.238;13.948;2023-05-19T00:17:08;10.90;99.90
3994;DHT22;2011;48.238;13.948;2023-05-19T00:19:35;10.90;99.90
3994;DHT22;2011;48.238;13.948;2023-05-19T00:22:04;10.90;99.90
3994;DHT22;2011;48.238;13.948;2023-05-19T00:24:31;10.90;99.90
3994;DHT22;2011;48.238;13.948;2023-05-19T00:26:58;10.90;99.90
3994;DHT22;2011;48.238;13.948;2023-05-19T00:29:25;10.80;99.90
3994;DHT22;2011;48.238;13.948;2023-05-19T00:31:52;10.80;99.90
3994;DHT22;2011;48.238;13.948;2023-05-19T00:34:19;10.80;99.90
3994;DHT22;2011;48.238;13.948;2023-05-19T00:36:45;10.80;99.90
3994;DHT22;2011;48.238;13.948;2023-05-19T00:39:14;10.70;99.90
3994;DHT22;2011;48.238;13.948;2023-05-19T00:41:41;10.70;99.90
3994;DHT22;2011;48.238;13.948;2023-05-19T00:44:08;10.70;99.90
3994;DHT22;2011;48.238;13.948;2023-05-19T00:46:34;10.70;99.90
3994;DHT22;2011;48.238;13.948;2023-05-19T00:49:02;10.70;99.90
3994;DHT22;2011;48.238;13.948;2023-05-19T00:51:29;10.70;99.90
3994;DHT22;2011;48.238;13.948;2023-05-19T00:53:56;10.60;99.90
3994;DHT22;2011;48.238;13.948;2023-05-19T00:56:25;10.60;99.90
3994;DHT22;2011;48.238;13.948;2023-05-19T00:58:52;10.60;99.90
3994;DHT22;2011;48.238;13.948;2023-05-19T01:01:20;10.60;99.90
3994;DHT22;2011;48.238;13.948;2023-05-19T01:03:47;10.60;99.90
3994;DHT22;2011;48.238;13.948;2023-05-19T01:06:15;10.60;99.90
3994;DHT22;2011;48.238;13.948;2023-05-19T01:08:43;10.60;99.90
3994;DHT22;2011;48.238;13.948;2023-05-19T01:11:11;10.60;99.90
3994;DHT22;2011;48.238;13.948;2023-05-19T01:13:39;10.60;99.90
3994;DHT22;2011;48.238;13.948;2023-05-19T01:16:11;10.60;99.90
3994;DHT22;2011;48.238;13.948;2023-05-19T01:18:43;10.50;99.90
3994;DHT22;2011;48.238;13.948;2023-05-19T01:21:47;10.60;99.90
3994;DHT22;2011;48.238;13.948;2023-05-19T01:27:28;10.50;99.90
3994;DHT22;2011;48.238;13.948;2023-05-19T01:30:25;10.50;99.90
3994;DHT22;2011;48.238;13.948;2023-05-19T01:32:54;10.50;99.90
3994;DHT22;2011;48.238;13.948;2023-05-19T01:35:22;10.50;99.90
3994;DHT22;2011;48.238;13.948;2023-05-19T01:37:51;10.50;99.90
3994;DHT22;2011;48.238;13.948;2023-05-19T01:40:20;10.50;99.90
3994;DHT22;2011;48.238;13.948;2023-05-19T01:42:49;10.50;99.90
3994;DHT22;2011;48.238;13.948;2023-05-19T01:45:17;10.60;99.90
3994;DHT22;2011;48.238;13.948;2023-05-19T01:47:49;10.60;99.90
3994;DHT22;2011;48.238;13.948;2023-05-19T01:50:16;10.50;99.90
3994;DHT22;2011;48.238;13.948;2023-05-19T01:52:43;10.50;99.90
3994;DHT22;2011;48.238;13.948;2023-05-19T01:55:09;10.50;99.90
3994;DHT22;2011;48.238;13.948;2023-05-19T01:57:42;10.50;99.90
3994;DHT22;2011;48.238;13.948;2023-05-19T02:00:17;10.60;99.90
3994;DHT22;2011;48.238;13.948;2023-05-19T02:02:55;10.60;99.90
3994;DHT22;2011;48.238;13.948;2023-05-19T02:05:29;10.60;99.90
3994;DHT22;2011;48.238;13.948;2023-05-19T02:08:00;10.60;99.90
3994;DHT22;2011;48.238;13.948;2023-05-19T02:10:31;10.60;99.90
3994;DHT22;2011;48.238;13.948;2023-05-19T02:13:04;10.60;99.90
3994;DHT22;2011;48.238;13.948;2023-05-19T02:15:37;10.60;99.90
3994;DHT22;2011;48.238;13.948;2023-05-19T02:18:07;10.50;99.90
3994;DHT22;2011;48.238;13.948;2023-05-19T02:20:36;10.50;99.90
3994;DHT22;2011;48.238;13.948;2023-05-19T02:23:03;10.50;99.90
3994;DHT22;2011;48.238;13.948;2023-05-19T02:25:30;10.50;99.90
3994;DHT22;2011;48.238;13.948;2023-05-19T02:27:57;10.50;99.90
3994;DHT22;2011;48.238;13.948;2023-05-19T02:30:24;10.50;99.90
3994;DHT22;2011;48.238;13.948;2023-05-19T02:32:51;10.50;99.90
3994;DHT22;2011;48.238;13.948;2023-05-19T02:35:20;10.50;99.90
3994;DHT22;2011;48.238;13.948;2023-05-19T02:37:47;10.50;99.90
3994;DHT22;2011;48.238;13.948;2023-05-19T02:40:13;10.50;99.90
3994;DHT22;2011;48.238;13.948;2023-05-19T02:42:40;10.50;99.90
3994;DHT22;2011;48.238;13.948;2023-05-19T02:45:08;10.50;99.90
3994;DHT22;2011;48.238;13.948;2023-05-19T02:47:35;10.50;99.90
3994;DHT22;2011;48.238;13.948;2023-05-19T02:50:03;10.50;99.90
3994;DHT22;2011;48.238;13.948;2023-05-19T02:52:31;10.50;99.90
3994;DHT22;2011;48.238;13.948;2023-05-19T02:54:58;10.50;99.90
3994;DHT22;2011;48.238;13.948;2023-05-19T02:57:28;10.50;99.90
3994;DHT22;2011;48.238;13.948;2023-05-19T02:59:56;10.50;99.90
3994;DHT22;2011;48.238;13.948;2023-05-19T03:02:23;10.50;99.90
3994;DHT22;2011;48.238;13.948;2023-05-19T03:04:49;10.50;99.90
3994;DHT22;2011;48.238;13.948;2023-05-19T03:07:16;10.50;99.90
3994;DHT22;2011;48.238;13.948;2023-05-19T03:09:51;10.50;99.90
3994;DHT22;2011;48.238;13.948;2023-05-19T03:12:18;10.50;99.90
3994;DHT22;2011;48.238;13.948;2023-05-19T03:14:46;10.50;99.90
3994;DHT22;2011;48.238;13.948;2023-05-19T03:17:13;10.40;99.90
3994;DHT22;2011;48.238;13.948;2023-05-19T03:19:40;10.40;99.90
3994;DHT22;2011;48.238;13.948;2023-05-19T03:22:07;10.40;99.90
3994;DHT22;2011;48.238;13.948;2023-05-19T03:24:33;10.40;99.90
3994;DHT22;2011;48.238;13.948;2023-05-19T03:27:02;10.50;99.90
3994;DHT22;2011;48.238;13.948;2023-05-19T03:29:30;10.50;99.90
3994;DHT22;2011;48.238;13.948;2023-05-19T03:31:57;10.50;99.90
3994;DHT22;2011;48.238;13.948;2023-05-19T03:34:24;10.50;99.90
3994;DHT22;2011;48.238;13.948;2023-05-19T03:36:51;10.50;99.90
3994;DHT22;2011;48.238;13.948;2023-05-19T03:39:18;10.50;99.90
3994;DHT22;2011;48.238;13.948;2023-05-19T03:41:44;10.50;99.90
3994;DHT22;2011;48.238;13.948;2023-05-19T03:44:13;10.50;99.90
3994;DHT22;2011;48.238;13.948;2023-05-19T03:46:40;10.50;99.90
3994;DHT22;2011;48.238;13.948;2023-05-19T03:49:07;10.50;99.90
3994;DHT22;2011;48.238;13.948;2023-05-19T03:51:33;10.50;99.90
3994;DHT22;2011;48.238;13.948;2023-05-19T03:54:01;10.50;99.90
3994;DHT22;2011;48.238;13.948;2023-05-19T03:56:29;10.50;99.90
3994;DHT22;2011;48.238;13.948;2023-05-19T03:58:57;10.50;99.90
3994;DHT22;2011;48.238;13.948;2023-05-19T04:01:25;10.50;99.90
3994;DHT22;2011;48.238;13.948;2023-05-19T04:03:52;10.50;99.90
3994;DHT22;2011;48.238;13.948;2023-05-19T04:06:19;10.50;99.90
3994;DHT22;2011;48.238;13.948;2023-05-19T04:08:46;10.50;99.90
3994;DHT22;2011;48.238;13.948;2023-05-19T04:11:13;10.50;99.90
3994;DHT22;2011;48.238;13.948;2023-05-19T04:13:40;10.50;99.90
3994;DHT22;2011;48.238;13.948;2023-05-19T04:16:07;10.60;99.90
3994;DHT22;2011;48.238;13.948;2023-05-19T04:18:35;10.50;99.90
3994;DHT22;2011;48.238;13.948;2023-05-19T04:21:02;10.60;99.90
3994;DHT22;2011;48.238;13.948;2023-05-19T04:23:29;10.60;99.90
3994;DHT22;2011;48.238;13.948;2023-05-19T04:25:57;10.60;99.90
3994;DHT22;2011;48.238;13.948;2023-05-19T04:28:24;10.60;99.90
3994;DHT22;2011;48.238;13.948;2023-05-19T04:30:51;10.60;99.90
3994;DHT22;2011;48.238;13.948;2023-05-19T04:33:19;10.60;99.90
3994;DHT22;2011;48.238;13.948;2023-05-19T04:35:47;10.60;99.90
3994;DHT22;2011;48.238;13.948;2023-05-19T04:38:14;10.70;99.90
3994;DHT22;2011;48.238;13.948;2023-05-19T04:40:43;10.70;99.90
3994;DHT22;2011;48.238;13.948;2023-05-19T04:43:10;10.70;99.90
3994;DHT22;2011;48.238;13.948;2023-05-19T04:45:37;10.70;99.90
3994;DHT22;2011;48.238;13.948;2023-05-19T04:48:07;10.80;99.90
3994;DHT22;2011;48.238;13.948;2023-05-19T04:50:34;10.80;99.90
3994;DHT22;2011;48.238;13.948;2023-05-19T04:53:04;10.80;99.90
3994;DHT22;2011;48.238;13.948;2023-05-19T04:55:31;10.90;99.90
3994;DHT22;2011;48.238;13.948;2023-05-19T04:57:58;10.90;99.90
3994;DHT22;2011;48.238;13.948;2023-05-19T05:00:26;11.00;99.90
3994;DHT22;2011;48.238;13.948;2023-05-19T05:02:54;11.00;99.90
3994;DHT22;2011;48.238;13.948;2023-05-19T05:05:22;11.10;99.90
3994;DHT22;2011;48.238;13.948;2023-05-19T05:07:49;11.10;99.90
3994;DHT22;2011;48.238;13.948;2023-05-19T05:10:19;11.10;99.90
3994;DHT22;2011;48.238;13.948;2023-05-19T05:12:47;11.10;99.90
3994;DHT22;2011;48.238;13.948;2023-05-19T05:15:15;11.10;99.90
3994;DHT22;2011;48.238;13.948;2023-05-19T05:17:43;11.20;99.90
3994;DHT22;2011;48.238;13.948;2023-05-19T05:20:11;11.20;99.90
3994;DHT22;2011;48.238;13.948;2023-05-19T05:22:39;11.30;99.90
3994;DHT22;2011;48.238;13.948;2023-05-19T05:25:07;11.30;99.90
3994;DHT22;2011;48.238;13.948;2023-05-19T05:27:36;11.30;99.90
3994;DHT22;2011;48.238;13.948;2023-05-19T05:30:03;11.20;99.90
3994;DHT22;2011;48.238;13.948;2023-05-19T05:32:31;11.30;99.90
3994;DHT22;2011;48.238;13.948;2023-05-19T05:34:58;11.40;99.90
3994;DHT22;2011;48.238;13.948;2023-05-19T05:37:24;11.40;99.90
3994;DHT22;2011;48.238;13.948;2023-05-19T05:39:51;11.50;99.90
3994;DHT22;2011;48.238;13.948;2023-05-19T05:42:18;11.50;99.90
3994;DHT22;2011;48.238;13.948;2023-05-19T05:44:47;11.50;99.90
3994;DHT22;2011;48.238;13.948;2023-05-19T05:47:14;11.60;99.90
3994;DHT22;2011;48.238;13.948;2023-05-19T05:49:42;11.70;99.90
3994;DHT22;2011;48.238;13.948;2023-05-19T05:52:11;11.70;99.90
3994;DHT22;2011;48.238;13.948;2023-05-19T05:54:38;11.70;99.90
3994;DHT22;2011;48.238;13.948;2023-05-19T05:57:06;11.80;99.90
3994;DHT22;2011;48.238;13.948;2023-05-19T05:59:33;11.80;99.90
3994;DHT22;2011;48.238;13.948;2023-05-19T06:02:02;11.70;99.90
3994;DHT22;2011;48.238;13.948;2023-05-19T06:04:29;11.60;99.90
3994;DHT22;2011;48.238;13.948;2023-05-19T06:06:56;11.60;99.90
3994;DHT22;2011;48.238;13.948;2023-05-19T06:09:26;11.60;99.90
3994;DHT22;2011;48.238;13.948;2023-05-19T06:11:57;11.70;99.90
3994;DHT22;2011;48.238;13.948;2023-05-19T06:14:24;11.70;99.90
3994;DHT22;2011;48.238;13.948;2023-05-19T06:16:51;11.70;99.90
3994;DHT22;2011;48.238;13.948;2023-05-19T06:19:20;11.80;99.90
3994;DHT22;2011;48.238;13.948;2023-05-19T06:21:49;11.80;99.90
3994;DHT22;2011;48.238;13.948;2023-05-19T06:24:16;11.80;99.90
3994;DHT22;2011;48.238;13.948;2023-05-19T06:26:43;11.90;99.90
3994;DHT22;2011;48.238;13.948;2023-05-19T06:29:10;11.90;99.90
3994;DHT22;2011;48.238;13.948;2023-05-19T06:31:37;12.00;99.90
3994;DHT22;2011;48.238;13.948;2023-05-19T06:34:04;12.00;99.90
3994;DHT22;2011;48.238;13.948;2023-05-19T06:36:32;12.00;99.90
3994;DHT22;2011;48.238;13.948;2023-05-19T06:38:59;11.90;99.90
3994;DHT22;2011;48.238;13.948;2023-05-19T06:41:26;12.00;99.90
3994;DHT22;2011;48.238;13.948;2023-05-19T06:43:53;12.10;99.90
3994;DHT22;2011;48.238;13.948;2023-05-19T06:46:21;12.10;99.90
3994;DHT22;2011;48.238;13.948;2023-05-19T06:48:47;12.20;99.90
3994;DHT22;2011;48.238;13.948;2023-05-19T06:51:14;12.10;99.90
3994;DHT22;2011;48.238;13.948;2023-05-19T06:53:47;12.10;99.90
3994;DHT22;2011;48.238;13.948;2023-05-19T06:56:14;12.10;99.90
3994;DHT22;2011;48.238;13.948;2023-05-19T06:58:42;12.20;99.90
3994;DHT22;2011;48.238;13.948;2023-05-19T07:01:09;12.20;99.90
3994;DHT22;2011;48.238;13.948;2023-05-19T07:03:36;12.20;99.90
3994;DHT22;2011;48.238;13.948;2023-05-19T07:06:03;12.20;99.90
3994;DHT22;2011;48.238;13.948;2023-05-19T07:08:30;12.20;99.90
3994;DHT22;2011;48.238;13.948;2023-05-19T07:10:58;12.20;99.90
3994;DHT22;2011;48.238;13.948;2023-05-19T07:13:25;12.30;99.90
3994;DHT22;2011;48.238;13.948;2023-05-19T07:15:52;12.40;99.90
3994;DHT22;2011;48.238;13.948;2023-05-19T07:18:20;12.40;99.90
3994;DHT22;2011;48.238;13.948;2023-05-19T07:20:47;12.40;99.90
3994;DHT22;2011;48.238;13.948;2023-05-19T07:23:14;12.50;99.90
3994;DHT22;2011;48.238;13.948;2023-05-19T07:25:41;12.50;99.90
3994;DHT22;2011;48.238;13.948;2023-05-19T07:28:09;12.50;99.90
3994;DHT22;2011;48.238;13.948;2023-05-19T07:30:37;12.40;99.90
3994;DHT22;2011;48.238;13.948;2023-05-19T07:33:04;12.40;99.90
3994;DHT22;2011;48.238;13.948;2023-05-19T07:35:31;12.40;99.90
3994;DHT22;2011;48.238;13.948;2023-05-19T07:37:58;12.40;99.90
3994;DHT22;2011;48.238;13.948;2023-05-19T07:40:25;12.40;99.90
3994;DHT22;2011;48.238;13.948;2023-05-19T07:42:52;12.40;99.90
3994;DHT22;2011;48.238;13.948;2023-05-19T07:45:20;12.40;99.90
3994;DHT22;2011;48.238;13.948;2023-05-19T07:47:47;12.50;99.90
3994;DHT22;2011;48.238;13.948;2023-05-19T07:50:14;12.50;99.90
3994;DHT22;2011;48.238;13.948;2023-05-19T07:52:40;12.60;99.90
3994;DHT22;2011;48.238;13.948;2023-05-19T07:55:07;12.50;99.90
3994;DHT22;2011;48.238;13.948;2023-05-19T07:57:34;12.50;99.90
3994;DHT22;2011;48.238;13.948;2023-05-19T08:00:01;12.60;99.90
3994;DHT22;2011;48.238;13.948;2023-05-19T08:02:33;12.70;99.90
3994;DHT22;2011;48.238;13.948;2023-05-19T08:05:00;12.80;99.90
3994;DHT22;2011;48.238;13.948;2023-05-19T08:07:27;12.90;99.90
3994;DHT22;2011;48.238;13.948;2023-05-19T08:09:54;12.90;99.90
3994;DHT22;2011;48.238;13.948;2023-05-19T08:12:20;13.00;99.90
3994;DHT22;2011;48.238;13.948;2023-05-19T08:14:47;13.00;99.90
3994;DHT22;2011;48.238;13.948;2023-05-19T08:17:14;13.20;99.90
3994;DHT22;2011;48.238;13.948;2023-05-19T08:19:42;13.30;99.90
3994;DHT22;2011;48.238;13.948;2023-05-19T08:22:09;13.30;99.90
3994;DHT22;2011;48.238;13.948;2023-05-19T08:24:36;13.40;99.90
3994;DHT22;2011;48.238;13.948;2023-05-19T08:27:04;13.50;99.90
3994;DHT22;2011;48.238;13.948;2023-05-19T08:29:31;13.60;99.90
3994;DHT22;2011;48.238;13.948;2023-05-19T08:31:58;13.70;99.90
3994;DHT22;2011;48.238;13.948;2023-05-19T08:34:26;13.90;99.90
3994;DHT22;2011;48.238;13.948;2023-05-19T08:36:54;14.00;99.90
3994;DHT22;2011;48.238;13.948;2023-05-19T08:39:22;14.10;99.90
3994;DHT22;2011;48.238;13.948;2023-05-19T08:41:51;14.10;99.90
3994;DHT22;2011;48.238;13.948;2023-05-19T08:44:18;14.10;99.90
3994;DHT22;2011;48.238;13.948;2023-05-19T08:46:46;14.20;99.90
3994;DHT22;2011;48.238;13.948;2023-05-19T08:49:13;14.30;99.90
3994;DHT22;2011;48.238;13.948;2023-05-19T08:51:52;14.40;99.90
3994;DHT22;2011;48.238;13.948;2023-05-19T08:54:24;14.60;99.90
3994;DHT22;2011;48.238;13.948;2023-05-19T08:56:51;14.70;99.90
3994;DHT22;2011;48.238;13.948;2023-05-19T08:59:18;14.80;99.90
3994;DHT22;2011;48.238;13.948;2023-05-19T09:01:46;14.90;99.90
3994;DHT22;2011;48.238;13.948;2023-05-19T09:04:13;15.10;99.90
3994;DHT22;2011;48.238;13.948;2023-05-19T09:06:41;15.00;99.90
3994;DHT22;2011;48.238;13.948;2023-05-19T09:09:09;15.00;99.90
3994;DHT22;2011;48.238;13.948;2023-05-19T09:11:37;15.10;99.90
3994;DHT22;2011;48.238;13.948;2023-05-19T09:14:04;15.30;99.90
3994;DHT22;2011;48.238;13.948;2023-05-19T09:16:31;15.40;99.90
3994;DHT22;2011;48.238;13.948;2023-05-19T09:18:58;15.60;99.90
3994;DHT22;2011;48.238;13.948;2023-05-19T09:21:29;15.70;99.90
3994;DHT22;2011;48.238;13.948;2023-05-19T09:23:57;15.90;99.90
3994;DHT22;2011;48.238;13.948;2023-05-19T09:26:24;16.10;99.90
3994;DHT22;2011;48.238;13.948;2023-05-19T09:29:10;16.30;99.90
3994;DHT22;2011;48.238;13.948;2023-05-19T09:31:37;16.50;99.90
3994;DHT22;2011;48.238;13.948;2023-05-19T09:34:04;16.60;99.90
3994;DHT22;2011;48.238;13.948;2023-05-19T09:36:38;16.60;99.90
3994;DHT22;2011;48.238;13.948;2023-05-19T09:39:12;16.80;99.90
3994;DHT22;2011;48.238;13.948;2023-05-19T09:41:39;16.90;99.90
3994;DHT22;2011;48.238;13.948;2023-05-19T09:44:11;17.00;99.90
3994;DHT22;2011;48.238;13.948;2023-05-19T09:46:46;17.20;99.90
3994;DHT22;2011;48.238;13.948;2023-05-19T09:49:18;17.20;99.90
3994;DHT22;2011;48.238;13.948;2023-05-19T09:51:48;17.40;99.90
3994;DHT22;2011;48.238;13.948;2023-05-19T09:54:15;17.40;99.90
3994;DHT22;2011;48.238;13.948;2023-05-19T09:56:42;17.50;99.90
3994;DHT22;2011;48.238;13.948;2023-05-19T09:59:11;17.60;99.90
3994;DHT22;2011;48.238;13.948;2023-05-19T10:01:40;17.70;99.90
3994;DHT22;2011;48.238;13.948;2023-05-19T10:04:11;17.80;99.90
3994;DHT22;2011;48.238;13.948;2023-05-19T10:06:39;17.90;99.90
3994;DHT22;2011;48.238;13.948;2023-05-19T10:09:06;17.80;99.90
3994;DHT22;2011;48.238;13.948;2023-05-19T10:11:33;17.90;99.90
3994;DHT22;2011;48.238;13.948;2023-05-19T10:14:00;18.00;99.90
3994;DHT22;2011;48.238;13.948;2023-05-19T10:16:29;18.00;99.90
3994;DHT22;2011;48.238;13.948;2023-05-19T10:18:57;18.00;99.90
3994;DHT22;2011;48.238;13.948;2023-05-19T10:21:25;18.10;99.90
3994;DHT22;2011;48.238;13.948;2023-05-19T10:23:52;18.20;99.90
3994;DHT22;2011;48.238;13.948;2023-05-19T10:26:20;18.30;99.90
3994;DHT22;2011;48.238;13.948;2023-05-19T10:28:48;18.40;99.90
3994;DHT22;2011;48.238;13.948;2023-05-19T10:31:18;18.30;99.90
3994;DHT22;2011;48.238;13.948;2023-05-19T10:33:59;18.50;99.90
3994;DHT22;2011;48.238;13.948;2023-05-19T10:36:38;18.80;99.90
3994;DHT22;2011;48.238;13.948;2023-05-19T10:39:15;19.00;99.90
3994;DHT22;2011;48.238;13.948;2023-05-19T10:41:46;19.10;99.90
3994;DHT22;2011;48.238;13.948;2023-05-19T10:44:21;19.30;99.90
3994;DHT22;2011;48.238;13.948;2023-05-19T10:46:50;19.40;99.90
3994;DHT22;2011;48.238;13.948;2023-05-19T10:49:21;19.40;99.90
3994;DHT22;2011;48.238;13.948;2023-05-19T10:51:48;19.50;99.90
3994;DHT22;2011;48.238;13.948;2023-05-19T10:54:15;19.60;99.90
3994;DHT22;2011;48.238;13.948;2023-05-19T10:56:46;19.70;99.90
3994;DHT22;2011;48.238;13.948;2023-05-19T10:59:31;19.60;99.90
3994;DHT22;2011;48.238;13.948;2023-05-19T11:02:02;19.50;99.90
3994;DHT22;2011;48.238;13.948;2023-05-19T11:04:44;19.60;99.90
3994;DHT22;2011;48.238;13.948;2023-05-19T11:07:16;19.70;99.90
3994;DHT22;2011;48.238;13.948;2023-05-19T11:09:43;19.70;99.90
3994;DHT22;2011;48.238;13.948;2023-05-19T11:12:10;19.70;99.90
3994;DHT22;2011;48.238;13.948;2023-05-19T11:14:37;19.90;99.90
3994;DHT22;2011;48.238;13.948;2023-05-19T11:17:12;19.90;99.90
3994;DHT22;2011;48.238;13.948;2023-05-19T11:19:51;19.90;99.90
3994;DHT22;2011;48.238;13.948;2023-05-19T11:22:22;19.90;99.90
3994;DHT22;2011;48.238;13.948;2023-05-19T11:24:49;20.00;99.90
3994;DHT22;2011;48.238;13.948;2023-05-19T11:27:24;20.20;99.90
3994;DHT22;2011;48.238;13.948;2023-05-19T11:29:53;20.40;99.90
3994;DHT22;2011;48.238;13.948;2023-05-19T11:32:20;20.50;99.90
3994;DHT22;2011;48.238;13.948;2023-05-19T11:34:49;20.60;99.90
3994;DHT22;2011;48.238;13.948;2023-05-19T11:37:16;20.70;99.90
3994;DHT22;2011;48.238;13.948;2023-05-19T11:39:44;20.80;99.60
3994;DHT22;2011;48.238;13.948;2023-05-19T11:42:11;20.80;99.90
3994;DHT22;2011;48.238;13.948;2023-05-19T11:44:38;21.00;99.90
3994;DHT22;2011;48.238;13.948;2023-05-19T11:47:07;21.00;99.80
3994;DHT22;2011;48.238;13.948;2023-05-19T11:49:34;20.80;98.90
3994;DHT22;2011;48.238;13.948;2023-05-19T11:52:04;20.60;98.80
3994;DHT22;2011;48.238;13.948;2023-05-19T11:54:32;20.40;98.60
3994;DHT22;2011;48.238;13.948;2023-05-19T11:57:01;20.40;98.80
3994;DHT22;2011;48.238;13.948;2023-05-19T11:59:29;20.30;99.20
3994;DHT22;2011;48.238;13.948;2023-05-19T12:01:59;20.40;99.70
3994;DHT22;2011;48.238;13.948;2023-05-19T12:04:26;20.60;99.90
3994;DHT22;2011;48.238;13.948;2023-05-19T12:06:53;20.90;99.90
3994;DHT22;2011;48.238;13.948;2023-05-19T12:09:22;21.20;99.90
3994;DHT22;2011;48.238;13.948;2023-05-19T12:11:50;21.30;99.70
3994;DHT22;2011;48.238;13.948;2023-05-19T12:14:17;21.40;99.50
3994;DHT22;2011;48.238;13.948;2023-05-19T12:16:44;21.50;99.40
3994;DHT22;2011;48.238;13.948;2023-05-19T12:19:11;21.70;99.90
3994;DHT22;2011;48.238;13.948;2023-05-19T12:21:38;21.80;99.90
3994;DHT22;2011;48.238;13.948;2023-05-19T12:24:06;22.00;99.40
3994;DHT22;2011;48.238;13.948;2023-05-19T12:26:35;21.90;99.00
3994;DHT22;2011;48.238;13.948;2023-05-19T12:29:04;22.10;99.60
3994;DHT22;2011;48.238;13.948;2023-05-19T12:31:32;22.20;98.60
3994;DHT22;2011;48.238;13.948;2023-05-19T12:33:59;22.10;97.70
3994;DHT22;2011;48.238;13.948;2023-05-19T12:36:27;22.00;98.20
3994;DHT22;2011;48.238;13.948;2023-05-19T12:38:55;22.00;98.20
3994;DHT22;2011;48.238;13.948;2023-05-19T12:41:23;21.80;97.40
3994;DHT22;2011;48.238;13.948;2023-05-19T12:43:53;21.80;97.50
3994;DHT22;2011;48.238;13.948;2023-05-19T12:46:20;21.80;97.80
3994;DHT22;2011;48.238;13.948;2023-05-19T12:48:47;21.90;97.20
3994;DHT22;2011;48.238;13.948;2023-05-19T12:51:17;21.90;97.00
3994;DHT22;2011;48.238;13.948;2023-05-19T12:53:44;22.10;97.10
3994;DHT22;2011;48.238;13.948;2023-05-19T12:56:12;22.20;96.80
3994;DHT22;2011;48.238;13.948;2023-05-19T12:58:39;22.20;96.50
3994;DHT22;2011;48.238;13.948;2023-05-19T13:01:14;22.20;96.70
3994;DHT22;2011;48.238;13.948;2023-05-19T13:03:42;22.20;96.20
3994;DHT22;2011;48.238;13.948;2023-05-19T13:06:09;22.10;96.40
3994;DHT22;2011;48.238;13.948;2023-05-19T13:08:37;22.40;97.60
3994;DHT22;2011;48.238;13.948;2023-05-19T13:11:04;22.60;97.40
3994;DHT22;2011;48.238;13.948;2023-05-19T13:13:31;22.50;97.00
3994;DHT22;2011;48.238;13.948;2023-05-19T13:15:58;22.20;96.00
3994;DHT22;2011;48.238;13.948;2023-05-19T13:18:27;22.00;96.40
3994;DHT22;2011;48.238;13.948;2023-05-19T13:20:56;22.00;96.80
3994;DHT22;2011;48.238;13.948;2023-05-19T13:23:23;22.00;96.60
3994;DHT22;2011;48.238;13.948;2023-05-19T13:25:50;22.10;96.60
3994;DHT22;2011;48.238;13.948;2023-05-19T13:28:17;22.30;97.30
3994;DHT22;2011;48.238;13.948;2023-05-19T13:30:44;22.40;96.80
3994;DHT22;2011;48.238;13.948;2023-05-19T13:33:11;22.40;97.00
3994;DHT22;2011;48.238;13.948;2023-05-19T13:35:39;22.50;96.40
3994;DHT22;2011;48.238;13.948;2023-05-19T13:38:08;22.40;96.50
3994;DHT22;2011;48.238;13.948;2023-05-19T13:40:35;22.50;97.10
3994;DHT22;2011;48.238;13.948;2023-05-19T13:43:02;22.50;96.90
3994;DHT22;2011;48.238;13.948;2023-05-19T13:45:29;22.40;96.60
3994;DHT22;2011;48.238;13.948;2023-05-19T13:47:56;22.30;96.80
3994;DHT22;2011;48.238;13.948;2023-05-19T13:50:23;22.30;97.10
3994;DHT22;2011;48.238;13.948;2023-05-19T13:52:52;22.20;96.90
3994;DHT22;2011;48.238;13.948;2023-05-19T13:55:19;22.10;96.90
3994;DHT22;2011;48.238;13.948;2023-05-19T13:57:47;21.90;96.70
3994;DHT22;2011;48.238;13.948;2023-05-19T14:00:14;21.80;96.70
3994;DHT22;2011;48.238;13.948;2023-05-19T14:02:42;21.90;97.50
3994;DHT22;2011;48.238;13.948;2023-05-19T14:05:09;21.80;97.10
3994;DHT22;2011;48.238;13.948;2023-05-19T14:07:36;21.90;97.50
3994;DHT22;2011;48.238;13.948;2023-05-19T14:10:06;21.80;97.00
3994;DHT22;2011;48.238;13.948;2023-05-19T14:12:34;21.80;97.60
3994;DHT22;2011;48.238;13.948;2023-05-19T14:15:01;21.80;97.00
3994;DHT22;2011;48.238;13.948;2023-05-19T14:17:28;22.00;97.50
3994;DHT22;2011;48.238;13.948;2023-05-19T14:19:55;22.10;97.30
3994;DHT22;2011;48.238;13.948;2023-05-19T14:22:22;22.10;96.80
3994;DHT22;2011;48.238;13.948;2023-05-19T14:24:49;22.10;96.40
3994;DHT22;2011;48.238;13.948;2023-05-19T14:27:17;22.10;96.50
3994;DHT22;2011;48.238;13.948;2023-05-19T14:29:44;22.10;96.60
3994;DHT22;2011;48.238;13.948;2023-05-19T14:32:13;22.10;97.40
3994;DHT22;2011;48.238;13.948;2023-05-19T14:34:41;22.30;97.50
3994;DHT22;2011;48.238;13.948;2023-05-19T14:37:08;22.40;97.10
3994;DHT22;2011;48.238;13.948;2023-05-19T14:39:35;22.40;96.20
3994;DHT22;2011;48.238;13.948;2023-05-19T14:42:02;22.30;96.40
3994;DHT22;2011;48.238;13.948;2023-05-19T14:44:31;22.20;96.20
3994;DHT22;2011;48.238;13.948;2023-05-19T14:46:58;22.20;96.30
3994;DHT22;2011;48.238;13.948;2023-05-19T14:49:25;22.20;96.20
3994;DHT22;2011;48.238;13.948;2023-05-19T14:51:52;22.10;96.00
3994;DHT22;2011;48.238;13.948;2023-05-19T14:54:19;22.00;95.70
3994;DHT22;2011;48.238;13.948;2023-05-19T14:56:46;21.90;96.00
3994;DHT22;2011;48.238;13.948;2023-05-19T14:59:13;21.90;96.60
3994;DHT22;2011;48.238;13.948;2023-05-19T15:01:41;21.80;96.50
3994;DHT22;2011;48.238;13.948;2023-05-19T15:04:08;21.70;96.70
3994;DHT22;2011;48.238;13.948;2023-05-19T15:06:35;21.60;96.60
3994;DHT22;2011;48.238;13.948;2023-05-19T15:09:02;21.60;97.10
3994;DHT22;2011;48.238;13.948;2023-05-19T15:11:29;21.50;96.90
3994;DHT22;2011;48.238;13.948;2023-05-19T15:13:55;21.40;96.60
3994;DHT22;2011;48.238;13.948;2023-05-19T15:16:22;21.40;96.90
3994;DHT22;2011;48.238;13.948;2023-05-19T15:18:51;21.40;97.50
3994;DHT22;2011;48.238;13.948;2023-05-19T15:21:17;21.40;97.00
3994;DHT22;2011;48.238;13.948;2023-05-19T15:23:44;21.40;97.20
3994;DHT22;2011;48.238;13.948;2023-05-19T15:26:12;21.40;97.30
3994;DHT22;2011;48.238;13.948;2023-05-19T15:28:39;21.40;97.50
3994;DHT22;2011;48.238;13.948;2023-05-19T15:31:06;21.40;97.20
3994;DHT22;2011;48.238;13.948;2023-05-19T15:33:33;21.30;97.20
3994;DHT22;2011;48.238;13.948;2023-05-19T15:36:01;21.20;97.70
3994;DHT22;2011;48.238;13.948;2023-05-19T15:38:28;21.20;97.20
3994;DHT22;2011;48.238;13.948;2023-05-19T15:40:55;21.10;97.20
3994;DHT22;2011;48.238;13.948;2023-05-19T15:43:21;21.10;97.30
3994;DHT22;2011;48.238;13.948;2023-05-19T15:45:49;21.00;97.50
3994;DHT22;2011;48.238;13.948;2023-05-19T15:48:19;21.00;97.80
3994;DHT22;2011;48.238;13.948;2023-05-19T15:50:46;20.90;97.50
3994;DHT22;2011;48.238;13.948;2023-05-19T15:53:14;20.70;97.80
3994;DHT22;2011;48.238;13.948;2023-05-19T15:55:41;20.50;98.10